sensor_id;sensor_type;location;lat;lon;timestamp;pressure;altitude;pressure_sealevel;temperature;humidity
39699;BME280;25372;50.582;12.250;2023-02-16T00:02:54;100768.97;;;-3.24;100.00
39699;BME280;25372;50.582;12.250;2023-02-16T00:13:20;100769.66;;;-3.21;100.00
39699;BME280;25372;50.582;12.250;2023-02-16T00:24:01;100763.63;;;-3.21;100.00
39699;BME280;25372;50.582;12.250;2023-02-16T00:34:32;100765.81;;;-3.50;100.00
39699;BME280;25372;50.582;12.250;2023-02-16T00:44:55;100767.06;;;-3.40;100.00
39699;BME280;25372;50.582;12.250;2023-02-16T00:55:19;100773.38;;;-3.45;100.00
39699;BME280;25372;50.582;12.250;2023-02-16T01:05:40;100760.22;;;-3.60;100.00
39699;BME280;25372;50.582;12.250;2023-02-16T01:16:02;100749.91;;;-3.61;100.00
39699;BME280;25372;50.582;12.250;2023-02-16T01:26:24;100732.91;;;-3.67;100.00
39699;BME280;25372;50.582;12.250;2023-02-16T01:36:47;100743.47;;;-3.72;100.00
39699;BME280;25372;50.582;12.250;2023-02-16T01:47:16;100742.78;;;-3.56;100.00
39699;BME280;25372;50.582;12.250;2023-02-16T01:57:42;100742.50;;;-3.69;100.00
39699;BME280;25372;50.582;12.250;2023-02-16T02:08:11;100726.81;;;-3.66;100.00
39699;BME280;25372;50.582;12.250;2023-02-16T02:18:35;100727.78;;;-3.88;100.00
39699;BME280;25372;50.582;12.250;2023-02-16T02:29:11;100735.56;;;-3.88;100.00
39699;BME280;25372;50.582;12.250;2023-02-16T02:39:44;100727.94;;;-3.91;100.00
39699;BME280;25372;50.582;12.250;2023-02-16T02:50:31;100717.44;;;-3.69;100.00
39699;BME280;25372;50.582;12.250;2023-02-16T03:00:53;100698.09;;;-3.61;100.00
39699;BME280;25372;50.582;12.250;2023-02-16T03:11:20;100703.13;;;-3.39;100.00
39699;BME280;25372;50.582;12.250;2023-02-16T03:21:59;100714.44;;;-3.59;100.00
39699;BME280;25372;50.582;12.250;2023-02-16T03:32:40;100718.53;;;-3.74;100.00
39699;BME280;25372;50.582;12.250;2023-02-16T03:43:02;100718.22;;;-3.66;100.00
39699;BME280;25372;50.582;12.250;2023-02-16T03:53:25;100713.03;;;-3.86;100.00
39699;BME280;25372;50.582;12.250;2023-02-16T04:03:46;100707.13;;;-3.70;100.00
39699;BME280;25372;50.582;12.250;2023-02-16T04:14:08;100721.28;;;-3.77;100.00
39699;BME280;25372;50.582;12.250;2023-02-16T04:24:29;100722.06;;;-3.75;100.00
39699;BME280;25372;50.582;12.250;2023-02-16T04:34:51;100721.56;;;-3.83;100.00
39699;BME280;25372;50.582;12.250;2023-02-16T04:45:12;100708.47;;;-3.99;100.00
39699;BME280;25372;50.582;12.250;2023-02-16T04:55:34;100699.59;;;-3.94;100.00
39699;BME280;25372;50.582;12.250;2023-02-16T05:05:55;100702.06;;;-4.30;100.00
39699;BME280;25372;50.582;12.250;2023-02-16T05:16:18;100705.66;;;-4.14;100.00
39699;BME280;25372;50.582;12.250;2023-02-16T05:26:39;100701.41;;;-4.15;100.00
39699;BME280;25372;50.582;12.250;2023-02-16T05:37:01;100728.41;;;-4.01;100.00
39699;BME280;25372;50.582;12.250;2023-02-16T05:47:22;100726.41;;;-4.15;100.00
39699;BME280;25372;50.582;12.250;2023-02-16T05:57:44;100735.22;;;-3.80;100.00
39699;BME280;25372;50.582;12.250;2023-02-16T06:08:05;100736.72;;;-3.95;100.00
39699;BME280;25372;50.582;12.250;2023-02-16T06:18:28;100729.25;;;-4.01;100.00
39699;BME280;25372;50.582;12.250;2023-02-16T06:28:49;100735.59;;;-4.08;100.00
39699;BME280;25372;50.582;12.250;2023-02-16T06:39:11;100738.13;;;-4.07;100.00
39699;BME280;25372;50.582;12.250;2023-02-16T06:49:32;100731.31;;;-3.89;100.00
39699;BME280;25372;50.582;12.250;2023-02-16T06:59:57;100734.31;;;-3.79;100.00
39699;BME280;25372;50.582;12.250;2023-02-16T07:10:18;100705.88;;;-3.80;100.00
39699;BME280;25372;50.582;12.250;2023-02-16T07:20:40;100708.44;;;-3.42;100.00
39699;BME280;25372;50.582;12.250;2023-02-16T07:31:05;100708.28;;;-3.20;100.00
39699;BME280;25372;50.582;12.250;2023-02-16T07:41:27;100732.94;;;-2.94;100.00
39699;BME280;25372;50.582;12.250;2023-02-16T07:51:48;100731.50;;;-2.82;100.00
39699;BME280;25372;50.582;12.250;2023-02-16T08:02:15;100732.97;;;-2.59;100.00
39699;BME280;25372;50.582;12.250;2023-02-16T08:12:36;100737.09;;;-2.04;100.00
39699;BME280;25372;50.582;12.250;2023-02-16T08:22:58;100746.69;;;-1.56;100.00
39699;BME280;25372;50.582;12.250;2023-02-16T08:33:19;100744.38;;;-0.83;100.00
39699;BME280;25372;50.582;12.250;2023-02-16T08:43:41;100717.22;;;-0.34;100.00
39699;BME280;25372;50.582;12.250;2023-02-16T08:54:02;100712.78;;;0.53;100.00
39699;BME280;25372;50.582;12.250;2023-02-16T09:04:26;100683.94;;;0.96;100.00
39699;BME280;25372;50.582;12.250;2023-02-16T09:14:47;100674.16;;;1.64;100.00
39699;BME280;25372;50.582;12.250;2023-02-16T09:25:09;100679.56;;;2.13;100.00
39699;BME280;25372;50.582;12.250;2023-02-16T09:35:30;100669.38;;;2.58;100.00
39699;BME280;25372;50.582;12.250;2023-02-16T09:45:52;100652.22;;;2.89;100.00
39699;BME280;25372;50.582;12.250;2023-02-16T09:56:19;100666.84;;;2.81;100.00
39699;BME280;25372;50.582;12.250;2023-02-16T10:06:49;100651.47;;;2.76;99.83
39699;BME280;25372;50.582;12.250;2023-02-16T10:17:21;100670.66;;;3.12;99.33
39699;BME280;25372;50.582;12.250;2023-02-16T10:27:53;100661.56;;;3.52;98.54
39699;BME280;25372;50.582;12.250;2023-02-16T10:38:21;100647.19;;;4.24;91.78
39699;BME280;25372;50.582;12.250;2023-02-16T10:48:51;100630.31;;;4.81;87.09
39699;BME280;25372;50.582;12.250;2023-02-16T10:59:14;100605.13;;;5.42;85.73
39699;BME280;25372;50.582;12.250;2023-02-16T11:09:39;100607.44;;;7.14;76.14
39699;BME280;25372;50.582;12.250;2023-02-16T11:20:02;100593.03;;;7.84;70.67
39699;BME280;25372;50.582;12.250;2023-02-16T11:30:31;100585.06;;;7.66;72.46
39699;BME280;25372;50.582;12.250;2023-02-16T11:40:52;100569.31;;;8.20;68.51
39699;BME280;25372;50.582;12.250;2023-02-16T11:51:28;100558.25;;;8.52;68.67
39699;BME280;25372;50.582;12.250;2023-02-16T12:02:01;100543.66;;;8.30;69.19
39699;BME280;25372;50.582;12.250;2023-02-16T12:12:32;100548.53;;;8.79;67.24
39699;BME280;25372;50.582;12.250;2023-02-16T12:23:03;100536.03;;;9.16;65.08
39699;BME280;25372;50.582;12.250;2023-02-16T12:33:40;100528.38;;;9.39;63.60
39699;BME280;25372;50.582;12.250;2023-02-16T12:44:12;100515.25;;;9.55;61.05
39699;BME280;25372;50.582;12.250;2023-02-16T12:54:39;100508.06;;;9.39;61.57
39699;BME280;25372;50.582;12.250;2023-02-16T13:05:07;100501.84;;;9.57;59.43
39699;BME280;25372;50.582;12.250;2023-02-16T13:15:33;100490.53;;;9.38;59.71
39699;BME280;25372;50.582;12.250;2023-02-16T13:26:19;100481.06;;;9.95;56.38
39699;BME280;25372;50.582;12.250;2023-02-16T13:37:11;100472.94;;;9.88;55.54
39699;BME280;25372;50.582;12.250;2023-02-16T13:47:38;100472.31;;;10.03;55.19
39699;BME280;25372;50.582;12.250;2023-02-16T13:58:06;100478.72;;;9.67;57.23
39699;BME280;25372;50.582;12.250;2023-02-16T14:08:29;100476.41;;;9.64;54.43
39699;BME280;25372;50.582;12.250;2023-02-16T14:18:56;100483.31;;;9.65;55.12
39699;BME280;25372;50.582;12.250;2023-02-16T14:29:20;100493.50;;;9.35;57.18
39699;BME280;25372;50.582;12.250;2023-02-16T14:39:45;100473.63;;;8.97;60.40
39699;BME280;25372;50.582;12.250;2023-02-16T14:50:15;100488.53;;;9.40;56.54
39699;BME280;25372;50.582;12.250;2023-02-16T15:00:43;100491.25;;;8.62;63.86
39699;BME280;25372;50.582;12.250;2023-02-16T15:11:13;100493.25;;;7.42;69.77
39699;BME280;25372;50.582;12.250;2023-02-16T15:21:35;100488.63;;;7.26;71.93
39699;BME280;25372;50.582;12.250;2023-02-16T15:31:57;100479.41;;;6.45;76.12
39699;BME280;25372;50.582;12.250;2023-02-16T15:42:22;100484.41;;;5.89;80.62
39699;BME280;25372;50.582;12.250;2023-02-16T15:52:46;100490.31;;;4.91;86.35
39699;BME280;25372;50.582;12.250;2023-02-16T16:03:12;100481.47;;;3.86;92.17
39699;BME280;25372;50.582;12.250;2023-02-16T16:13:36;100488.22;;;2.88;98.43
39699;BME280;25372;50.582;12.250;2023-02-16T16:24:00;100503.09;;;2.65;100.00
39699;BME280;25372;50.582;12.250;2023-02-16T16:34:36;100498.31;;;2.23;100.00
39699;BME280;25372;50.582;12.250;2023-02-16T16:45:00;100512.91;;;1.90;100.00
39699;BME280;25372;50.582;12.250;2023-02-16T16:55:26;100510.97;;;1.81;100.00
39699;BME280;25372;50.582;12.250;2023-02-16T17:05:49;100506.03;;;1.52;100.00
39699;BME280;25372;50.582;12.250;2023-02-16T17:16:14;100508.28;;;1.46;100.00
39699;BME280;25372;50.582;12.250;2023-02-16T17:26:38;100508.28;;;1.33;100.00
39699;BME280;25372;50.582;12.250;2023-02-16T17:37:00;100500.91;;;1.51;100.00
39699;BME280;25372;50.582;12.250;2023-02-16T17:47:23;100487.84;;;1.88;100.00
39699;BME280;25372;50.582;12.250;2023-02-16T17:57:44;100483.66;;;1.85;100.00
39699;BME280;25372;50.582;12.250;2023-02-16T18:08:06;100484.44;;;1.50;100.00
39699;BME280;25372;50.582;12.250;2023-02-16T18:18:26;100498.63;;;1.46;100.00
39699;BME280;25372;50.582;12.250;2023-02-16T18:28:48;100503.66;;;1.36;100.00
39699;BME280;25372;50.582;12.250;2023-02-16T18:39:09;100507.75;;;1.28;100.00
39699;BME280;25372;50.582;12.250;2023-02-16T18:49:31;100515.19;;;1.21;100.00
39699;BME280;25372;50.582;12.250;2023-02-16T18:59:52;100510.69;;;1.23;100.00
39699;BME280;25372;50.582;12.250;2023-02-16T19:10:14;100533.69;;;1.05;100.00
39699;BME280;25372;50.582;12.250;2023-02-16T19:20:35;100541.91;;;1.37;100.00
39699;BME280;25372;50.582;12.250;2023-02-16T19:31:00;100513.13;;;1.63;100.00
39699;BME280;25372;50.582;12.250;2023-02-16T19:41:23;100489.50;;;2.13;100.00
39699;BME280;25372;50.582;12.250;2023-02-16T19:51:46;100482.09;;;2.42;100.00
39699;BME280;25372;50.582;12.250;2023-02-16T20:02:08;100484.28;;;3.51;100.00
39699;BME280;25372;50.582;12.250;2023-02-16T20:12:30;100451.59;;;5.74;90.02
39699;BME280;25372;50.582;12.250;2023-02-16T20:22:51;100460.22;;;6.15;87.62
39699;BME280;25372;50.582;12.250;2023-02-16T20:33:13;100460.44;;;6.41;85.96
39699;BME280;25372;50.582;12.250;2023-02-16T20:43:35;100464.09;;;6.21;86.36
39699;BME280;25372;50.582;12.250;2023-02-16T20:53:59;100467.91;;;6.66;84.24
39699;BME280;25372;50.582;12.250;2023-02-16T21:04:20;100450.88;;;6.60;84.65
39699;BME280;25372;50.582;12.250;2023-02-16T21:14:42;100444.88;;;6.58;86.09
39699;BME280;25372;50.582;12.250;2023-02-16T21:25:04;100436.28;;;6.66;85.54
39699;BME280;25372;50.582;12.250;2023-02-16T21:35:26;100421.22;;;6.48;85.84
39699;BME280;25372;50.582;12.250;2023-02-16T21:45:46;100413.72;;;6.53;86.35
39699;BME280;25372;50.582;12.250;2023-02-16T21:56:27;100412.81;;;6.72;84.96
39699;BME280;25372;50.582;12.250;2023-02-16T22:06:49;100401.06;;;6.94;84.79
39699;BME280;25372;50.582;12.250;2023-02-16T22:17:11;100392.19;;;6.95;84.21
39699;BME280;25372;50.582;12.250;2023-02-16T22:27:32;100386.59;;;7.08;82.98
39699;BME280;25372;50.582;12.250;2023-02-16T22:37:54;100384.38;;;7.31;82.14
39699;BME280;25372;50.582;12.250;2023-02-16T22:48:15;100376.50;;;7.04;84.36
39699;BME280;25372;50.582;12.250;2023-02-16T22:58:37;100359.69;;;7.05;84.56
39699;BME280;25372;50.582;12.250;2023-02-16T23:08:59;100336.50;;;7.08;85.00
39699;BME280;25372;50.582;12.250;2023-02-16T23:19:23;100329.56;;;6.89;85.56
39699;BME280;25372;50.582;12.250;2023-02-16T23:29:45;100330.47;;;6.98;85.28
39699;BME280;25372;50.582;12.250;2023-02-16T23:40:10;100312.69;;;6.82;85.83
39699;BME280;25372;50.582;12.250;2023-02-16T23:50:30;100297.34;;;7.13;84.38
